createdAt,value
2023-01-21T00:03:46.772Z,98.50
2023-01-21T00:09:48.704Z,99.64
2023-01-21T00:15:50.820Z,99.08
2023-01-21T00:21:52.978Z,98.70
2023-01-21T00:27:54.889Z,98.65
2023-01-21T00:33:56.915Z,98.54
2023-01-21T00:39:58.814Z,98.72
2023-01-21T00:46:00.838Z,98.68
2023-01-21T00:52:02.878Z,98.74
2023-01-21T00:58:04.818Z,99.40
2023-01-21T01:04:07.022Z,98.68
2023-01-21T01:10:10.695Z,98.95
2023-01-21T01:16:15.506Z,99.43
2023-01-21T01:22:17.439Z,98.89
2023-01-21T01:28:19.336Z,98.79
2023-01-21T01:34:21.272Z,99.21
2023-01-21T01:40:23.164Z,99.33
2023-01-21T01:46:35.166Z,99.09
2023-01-21T01:52:37.506Z,98.66
2023-01-21T01:58:40.056Z,98.37
2023-01-21T02:04:48.390Z,98.68
2023-01-21T02:10:50.365Z,99.10
2023-01-21T02:16:59.614Z,98.96
2023-01-21T02:23:34.988Z,99.20
2023-01-21T02:30:33.058Z,100.00
2023-01-21T02:36:57.285Z,100.00
2023-01-21T02:43:20.809Z,100.00
2023-01-21T02:49:50.953Z,100.00
2023-01-21T02:55:53.932Z,100.00
2023-01-21T03:02:31.937Z,99.70
2023-01-21T03:09:01.973Z,99.57
2023-01-21T03:15:38.841Z,99.67
2023-01-21T03:21:41.373Z,99.90
2023-01-21T03:27:46.470Z,99.44
2023-01-21T03:33:52.620Z,98.97
2023-01-21T03:40:40.872Z,99.20
2023-01-21T03:47:25.338Z,99.42
2023-01-21T03:53:27.501Z,99.31
2023-01-21T03:59:29.404Z,99.37
2023-01-21T04:05:31.289Z,99.65
2023-01-21T04:11:34.437Z,99.13
2023-01-21T04:17:36.754Z,99.12
2023-01-21T04:23:38.693Z,98.83
2023-01-21T04:29:40.577Z,98.53
2023-01-21T04:35:42.499Z,98.68
2023-01-21T04:41:44.507Z,98.83
2023-01-21T04:47:46.853Z,98.81
2023-01-21T04:53:48.775Z,98.28
2023-01-21T04:59:50.995Z,98.10
2023-01-21T05:05:52.867Z,98.16
2023-01-21T05:11:54.774Z,97.97
2023-01-21T05:17:56.695Z,97.78
2023-01-21T05:23:58.619Z,98.32
2023-01-21T05:30:00.511Z,98.66
2023-01-21T05:36:03.682Z,98.55
2023-01-21T05:42:05.657Z,98.56
2023-01-21T05:48:07.563Z,97.53
2023-01-21T05:54:09.444Z,97.50
2023-01-21T06:00:12.268Z,98.21
2023-01-21T06:06:14.201Z,96.79
2023-01-21T06:12:16.144Z,96.82
2023-01-21T06:18:18.034Z,96.45
2023-01-21T06:24:19.928Z,95.36
2023-01-21T06:30:22.964Z,96.03
2023-01-21T06:36:24.928Z,95.85
2023-01-21T06:42:26.974Z,94.07
2023-01-21T06:48:28.886Z,94.30
2023-01-21T06:54:30.879Z,93.68
2023-01-21T07:00:32.778Z,93.54
2023-01-21T07:06:34.724Z,93.01
2023-01-21T07:12:36.670Z,93.10
2023-01-21T07:18:38.576Z,93.27
2023-01-21T07:24:40.492Z,94.08
2023-01-21T07:30:42.447Z,92.84
2023-01-21T07:36:44.455Z,93.02
2023-01-21T07:42:55.566Z,93.39
2023-01-21T07:48:57.483Z,94.34
2023-01-21T07:54:59.365Z,94.34
2023-01-21T08:01:08.097Z,93.49
2023-01-21T08:07:13.107Z,94.44
2023-01-21T08:13:15.160Z,93.60
2023-01-21T08:19:17.057Z,93.53
2023-01-21T08:25:19.153Z,93.88
2023-01-21T08:31:21.518Z,93.89
2023-01-21T08:37:23.492Z,92.34
2023-01-21T08:43:26.256Z,93.07
2023-01-21T08:49:28.195Z,91.91
2023-01-21T08:55:30.358Z,92.36
2023-01-21T09:01:32.393Z,92.49
2023-01-21T09:07:34.310Z,90.37
2023-01-21T09:13:39.242Z,92.11
2023-01-21T09:19:41.587Z,90.14
2023-01-21T09:25:43.482Z,89.61
2023-01-21T09:31:45.455Z,89.48
2023-01-21T09:37:48.143Z,89.01
2023-01-21T09:44:06.041Z,88.02
2023-01-21T09:50:22.228Z,86.71
2023-01-21T09:56:33.448Z,85.75
2023-01-21T10:02:58.939Z,85.73
2023-01-21T10:09:26.493Z,84.72
2023-01-21T10:16:31.461Z,83.98
2023-01-21T10:22:34.802Z,84.88
2023-01-21T10:28:44.491Z,84.67
2023-01-21T10:34:57.132Z,83.73
2023-01-21T10:41:24.056Z,84.35
2023-01-21T10:47:49.556Z,85.11
2023-01-21T10:54:17.402Z,85.25
2023-01-21T11:00:32.559Z,83.79
2023-01-21T11:06:36.300Z,83.64
2023-01-21T11:12:38.277Z,83.49
2023-01-21T11:18:42.101Z,84.71
2023-01-21T11:24:50.605Z,82.76
2023-01-21T11:31:04.473Z,83.49
2023-01-21T11:37:08.305Z,82.61
2023-01-21T11:43:42.387Z,82.53
2023-01-21T11:49:48.426Z,82.71
2023-01-21T11:55:54.236Z,82.60
2023-01-21T12:02:06.192Z,83.48
2023-01-21T12:08:19.858Z,83.92
2023-01-21T12:14:41.437Z,84.07
2023-01-21T12:21:05.347Z,84.13
2023-01-21T12:27:38.173Z,84.01
2023-01-21T12:33:55.065Z,84.48
2023-01-21T12:40:01.312Z,85.30
2023-01-21T12:46:24.772Z,85.44
2023-01-21T12:52:40.157Z,86.00
2023-01-21T12:59:10.759Z,85.97
2023-01-21T13:05:35.325Z,85.52
2023-01-21T13:11:47.228Z,85.86
2023-01-21T13:17:56.852Z,85.82
2023-01-21T13:24:18.876Z,85.59
2023-01-21T13:30:29.417Z,84.41
2023-01-21T13:36:40.149Z,84.58
2023-01-21T13:43:24.414Z,85.72
2023-01-21T13:49:59.908Z,84.26
2023-01-21T13:56:13.685Z,86.09
2023-01-21T14:02:42.781Z,85.58
2023-01-21T14:09:04.186Z,85.57
2023-01-21T14:15:20.058Z,86.40
2023-01-21T14:21:54.697Z,86.84
2023-01-21T14:28:23.272Z,87.33
2023-01-21T14:34:40.469Z,87.22
2023-01-21T14:40:50.843Z,86.69
2023-01-21T14:47:25.053Z,88.02
2023-01-21T14:53:27.625Z,87.95
2023-01-21T14:59:41.636Z,88.22
2023-01-21T15:05:48.730Z,87.85
2023-01-21T15:11:58.583Z,88.21
2023-01-21T15:18:34.911Z,88.54
2023-01-21T15:24:36.690Z,89.50
2023-01-21T15:30:50.622Z,89.58
2023-01-21T15:36:59.601Z,89.49
2023-01-21T15:43:27.370Z,91.07
2023-01-21T15:49:59.045Z,90.41
2023-01-21T15:56:36.005Z,91.38
2023-01-21T16:03:13.677Z,91.87
2023-01-21T16:09:27.404Z,91.75
2023-01-21T16:16:27.597Z,90.77
2023-01-21T16:22:34.607Z,90.90
2023-01-21T16:28:51.286Z,91.20
2023-01-21T16:34:54.051Z,91.02
2023-01-21T16:41:23.910Z,90.36
2023-01-21T16:47:34.924Z,90.03
2023-01-21T16:53:36.843Z,90.12
2023-01-21T16:59:42.272Z,88.99
2023-01-21T17:05:44.811Z,90.04
2023-01-21T17:11:47.571Z,91.25
2023-01-21T17:17:49.706Z,92.07
2023-01-21T17:23:59.651Z,92.07
2023-01-21T17:30:31.835Z,92.78
2023-01-21T17:36:40.418Z,92.64
2023-01-21T17:42:42.437Z,93.42
2023-01-21T17:48:47.277Z,92.88
2023-01-21T17:54:49.352Z,93.06
2023-01-21T18:00:51.892Z,92.64
2023-01-21T18:06:55.345Z,92.97
2023-01-21T18:12:58.333Z,92.62
2023-01-21T18:19:00.715Z,93.48
2023-01-21T18:25:03.013Z,93.97
2023-01-21T18:31:05.259Z,93.32
2023-01-21T18:37:17.665Z,93.53
2023-01-21T18:43:19.566Z,94.13
2023-01-21T18:49:23.030Z,93.46
2023-01-21T18:55:29.865Z,93.26
2023-01-21T19:01:31.832Z,94.11
2023-01-21T19:07:33.948Z,92.93
2023-01-21T19:13:35.834Z,93.02
2023-01-21T19:19:37.721Z,94.15
2023-01-21T19:25:39.605Z,94.64
2023-01-21T19:31:41.669Z,93.95
2023-01-21T19:37:49.216Z,93.42
2023-01-21T19:43:51.312Z,93.86
2023-01-21T19:49:53.210Z,94.26
2023-01-21T19:55:55.488Z,95.74
2023-01-21T20:01:57.396Z,96.78
2023-01-21T20:08:00.822Z,98.30
2023-01-21T20:14:02.782Z,99.81
2023-01-21T20:20:22.580Z,100.00
2023-01-21T20:26:27.227Z,100.00
2023-01-21T20:32:29.113Z,100.00
2023-01-21T20:38:34.577Z,100.00
2023-01-21T20:44:36.454Z,100.00
2023-01-21T20:50:38.389Z,100.00
2023-01-21T20:56:40.333Z,100.00
2023-01-21T21:02:42.290Z,100.00
2023-01-21T21:08:44.777Z,100.00
2023-01-21T21:14:46.654Z,100.00
2023-01-21T21:20:48.536Z,100.00
2023-01-21T21:26:50.433Z,100.00
2023-01-21T21:32:52.818Z,100.00
2023-01-21T21:38:57.844Z,100.00
2023-01-21T21:44:59.741Z,100.00
2023-01-21T21:51:01.685Z,100.00
2023-01-21T21:57:03.604Z,100.00
2023-01-21T22:03:07.475Z,100.00
2023-01-21T22:09:09.461Z,100.00
2023-01-21T22:15:11.551Z,100.00
2023-01-21T22:21:18.397Z,100.00
2023-01-21T22:27:20.589Z,100.00
2023-01-21T22:33:22.527Z,100.00
2023-01-21T22:39:24.582Z,100.00
2023-01-21T22:45:26.530Z,100.00
2023-01-21T22:51:29.127Z,100.00
2023-01-21T22:57:31.051Z,100.00
2023-01-21T23:03:33.165Z,100.00
2023-01-21T23:09:35.058Z,100.00
2023-01-21T23:15:44.392Z,100.00
2023-01-21T23:21:46.565Z,100.00
2023-01-21T23:27:48.505Z,100.00
2023-01-21T23:33:52.519Z,100.00
2023-01-21T23:39:54.393Z,100.00
2023-01-21T23:45:56.340Z,100.00
2023-01-21T23:51:58.307Z,100.00
2023-01-21T23:58:00.191Z,100.00
